x

Ilm2 - 5 Miles Se Of Wrightsville Beach, Nc (41038) Weather Station

12:08 - Tue 24th Jan 2017 All times are EST. -5 hours from GMT.

  • Wind
    20mph, 27mph gusts
  • Sea Temp 55°f
  • Aire Temp 53°f
  • Sea Pressure 995.5mb
  • Ilm2 - 5 Miles Se Of Wrightsville Beach, Nc
  • Ilm2 - 5 Miles Se Of Wrightsville Beach, Nc

More Historic Weather Station data

Upgrade to MSW Pro to gain access to the past 30 days of data for over 8000 Wavebouys and Weather Stations around the globe.

Join Pro

Comparision Forecast

View Surf forecast
   
mar 01/24 12:08 20 27 mph 995.5mb 55f 53f
lun 01/23 11:08 18 25 mph 995.5mb 55f 53f
10:08 11 18 mph 995mb 55f 54f
9:08 9 11 mph 994.4mb 54f 54f
8:08 16 22 mph 993.6mb 54f 54f
7:08 13 18 mph 992.7mb 54f 55f
6:08 13 18 mph 991.4mb 54f 55f
5:08 11 16 mph 990.4mb 54f 55f
4:08 13 18 mph 989.8mb 54f 54f
3:08 7 9 mph 989.3mb 54f 56f
2:08 4 9 mph 989.4mb 54f 56f
1:08 9 13 mph 990mb 54f 57f
12:08 4 7 mph 990.7mb 54f 57f
11:08 4 9 mph 992mb 54f 56f
10:08 9 13 mph 993mb 55f 56f
9:08 13 18 mph 993.1mb 55f 55f
8:08 16 22 mph 993mb - 55f
7:08 18 25 mph 992.4mb - 55f
6:08 20 36 mph 991.8mb - 56f
5:08 20 29 mph 990.5mb - 57f
4:08 20 31 mph 990.1mb - 58f
3:08 18 27 mph 990.4mb - 60f
2:08 16 22 mph 990.4mb - 62f
1:08 20 36 mph 992.5mb - 64f
12:08 20 34 mph 992.7mb - 57f
dom 01/22 11:08 16 22 mph 996.8mb - 56f
10:08 13 22 mph 997.5mb - 56f
9:08 11 16 mph 996.8mb - 58f
8:08 11 16 mph 997.5mb - 57f
7:08 13 18 mph 999.1mb - 56f
6:08 9 13 mph 999.3mb - 56f
5:08 2 7 mph 1000.7mb - 56f
4:08 7 11 mph 1000.4mb - 56f
3:08 7 13 mph 1000.7mb - 57f
2:08 4 9 mph 999.5mb - 55f
1:08 9 18 mph 999.2mb - 56f
12:08 4 9 mph 1002.7mb - 56f
11:08 4 9 mph 1003.1mb - 56f
10:08 4 11 mph 1004.5mb - 56f
9:08 7 9 mph 1005.6mb - 56f
8:08 11 18 mph 1005.7mb - 57f
7:08 9 13 mph 1005mb - 56f
6:08 7 11 mph 1005.3mb - 55f
5:08 9 11 mph 1004.7mb - 57f
4:08 11 16 mph 1004.7mb - 57f
3:08 13 18 mph 1004.8mb - 57f
2:08 13 16 mph 1004.3mb - 57f
1:08 13 20 mph 1004.4mb - 57f
12:08 7 11 mph 1004.4mb - 57f
sáb 01/21 11:08 9 13 mph 1004.9mb - 59f
10:08 25 36 mph 1003.1mb - 59f
9:08 13 22 mph 1006mb - 60f
8:08 7 11 mph 1006.8mb - 59f
7:08 7 9 mph 1007.6mb - 60f
6:08 2 7 mph 1007.8mb - 56f
5:08 9 11 mph 1007.6mb - 56f
4:08 4 9 mph 1008.3mb - 57f
3:08 4 9 mph 1008.8mb - 56f
2:08 9 11 mph 1009.6mb - 55f
1:08 7 9 mph 1010.1mb - 61f
12:08 2 7 mph 1011.4mb - 58f
11:08 11 16 mph 1012.3mb - 58f
10:08 4 7 mph 1013.4mb - 56f
9:08 7 11 mph 1012.9mb - 57f
8:08 7 9 mph 1013mb - 54f
7:08 4 7 mph 1012.7mb - 55f
6:08 7 9 mph 1012.4mb - 56f
5:08 7 9 mph 1012.4mb - 55f
4:08 7 9 mph 1012.5mb - 56f
3:08 2
mph
1013mb - 55f
2:08 4 7 mph 1012.9mb - 54f
1:08 4 7 mph 1012.3mb - 55f
12:08 4 7 mph 1012.7mb - 55f
vie 01/20 11:08 2 4 mph 1013mb - 55f
10:08 4 7 mph 1012.4mb - 55f
9:08 4 7 mph 1012.1mb - 56f
8:08 7 9 mph 1011.5mb - 56f
7:08 7 9 mph 1011.3mb - 56f
6:08 11 16 mph 1010.5mb - 58f
5:08 11 16 mph 1010.2mb - 58f
4:08 11 13 mph 1009.8mb - 60f
3:08 11 16 mph 1010.1mb - 60f
2:08 4 7 mph 1010.3mb - 59f
1:08 2 4 mph 1010.8mb - 56f
12:08 2 4 mph 1011.8mb - 55f
8:08 7 9 mph 1013.7mb - 58f
7:08 9 13 mph 1012.8mb - 58f